Time;durP1;ratioP1;P1;durP2;ratioP2;P2;SDS_P1;SDS_P2;PMS_P1;PMS_P2;Temp;Humidity;BMP_temperature;BMP_pressure;BME280_temperature;BME280_humidity;BME280_pressure;Samples;Min_cycle;Max_cycle;Signal;HPM_P1;HPM_P2
2023/08/13 00:01:12;;;;;;;6.40;3.70;;;;;;;26.28;72.54;101270.75;5028176;27;99266;-64
2023/08/13 00:03:38;;;;;;;4.25;2.60;;;;;;;26.31;72.36;101276.75;5028729;27;96846;-64
2023/08/13 00:06:04;;;;;;;2.40;2.20;;;;;;;26.27;72.05;101267.19;5030461;27;96789;-64
2023/08/13 00:08:31;;;;;;;4.03;2.30;;;;;;;26.18;72.58;101268.03;5032859;27;101952;-64
2023/08/13 00:10:59;;;;;;;2.45;2.25;;;;;;;26.08;73.24;101276.13;5025418;27;99322;-63
2023/08/13 00:13:25;;;;;;;4.25;2.63;;;;;;;26.02;72.80;101284.81;5030455;27;96792;-64
2023/08/13 00:15:52;;;;;;;3.72;2.05;;;;;;;26.05;73.00;101283.69;5032375;27;97213;-64
2023/08/13 00:18:18;;;;;;;3.17;2.33;;;;;;;26.11;72.92;101280.41;5026230;27;99325;-63
2023/08/13 00:20:45;;;;;;;2.78;2.40;;;;;;;25.95;73.69;101285.53;5030917;27;98134;-64
2023/08/13 00:23:12;;;;;;;3.35;2.50;;;;;;;25.84;74.57;101289.22;5029180;27;97238;-65
2023/08/13 00:25:38;;;;;;;2.30;2.10;;;;;;;25.72;74.82;101293.03;5021116;27;97731;-64
2023/08/13 00:28:06;;;;;;;1.95;1.77;;;;;;;25.55;76.06;101294.50;5025132;27;99149;-64
2023/08/13 00:30:33;;;;;;;2.92;2.20;;;;;;;25.64;75.52;101299.16;5028739;27;98808;-64
2023/08/13 00:32:59;;;;;;;3.97;2.15;;;;;;;25.48;76.40;101296.06;5026544;27;96766;-64
2023/08/13 00:35:25;;;;;;;4.13;2.10;;;;;;;25.65;75.23;101298.16;5028663;27;97680;-65
2023/08/13 00:37:52;;;;;;;2.72;2.53;;;;;;;25.74;74.82;101291.03;5024761;27;102146;-65
2023/08/13 00:40:18;;;;;;;4.03;2.40;;;;;;;25.74;74.46;101293.75;5026948;27;98777;-64
2023/08/13 00:42:45;;;;;;;2.80;2.13;;;;;;;25.59;75.63;101292.44;5028392;27;96741;-64
2023/08/13 00:45:13;;;;;;;4.10;2.10;;;;;;;25.86;74.13;101294.50;5032521;27;96966;-64
2023/08/13 00:47:40;;;;;;;2.88;2.25;;;;;;;25.50;75.63;101310.31;5028913;27;99030;-65
2023/08/13 00:50:07;;;;;;;2.22;2.00;;;;;;;25.53;75.45;101301.06;5026515;27;98972;-65
2023/08/13 00:52:34;;;;;;;2.03;1.83;;;;;;;25.54;75.20;101306.31;5031653;27;97621;-64
2023/08/13 00:55:00;;;;;;;3.40;2.30;;;;;;;25.55;75.08;101305.34;5029216;27;97002;-64
2023/08/13 00:57:26;;;;;;;5.07;2.40;;;;;;;25.51;75.37;101305.75;5026976;27;99158;-64
2023/08/13 00:59:53;;;;;;;4.10;2.30;;;;;;;25.61;74.82;101310.22;5031388;27;98844;-65
2023/08/13 01:02:22;;;;;;;5.85;2.53;;;;;;;25.61;75.02;101318.34;5029695;27;97213;-64
2023/08/13 01:04:48;;;;;;;2.83;2.50;;;;;;;25.40;76.10;101321.09;5022375;27;96950;-65
2023/08/13 01:07:21;;;;;;;5.18;2.25;;;;;;;25.41;76.52;101330.91;5026833;27;98393;-64
2023/08/13 01:09:55;;;;;;;2.65;2.45;;;;;;;25.34;76.66;101329.75;5023139;27;98936;-65
2023/08/13 01:12:26;;;;;;;4.18;2.63;;;;;;;25.36;76.80;101335.88;5024399;27;96820;-65
2023/08/13 01:15:03;;;;;;;3.22;2.38;;;;;;;25.37;76.56;101334.91;5028076;27;96791;-65
2023/08/13 01:17:31;;;;;;;2.63;2.42;;;;;;;25.22;78.17;101333.53;5029244;27;99011;-66
2023/08/13 01:19:59;;;;;;;3.42;3.00;;;;;;;25.11;78.83;101340.88;5026678;27;97402;-63
2023/08/13 01:22:28;;;;;;;2.67;2.47;;;;;;;25.20;78.64;101337.38;5028126;27;97289;-64
2023/08/13 01:24:55;;;;;;;10.65;2.92;;;;;;;25.26;78.37;101342.25;5031385;27;96985;-64
2023/08/13 01:27:28;;;;;;;3.47;2.75;;;;;;;25.23;78.29;101351.47;5029340;27;99373;-64
2023/08/13 01:29:59;;;;;;;3.40;3.10;;;;;;;25.24;78.84;101341.50;5030720;27;98852;-64
2023/08/13 01:32:37;;;;;;;3.00;2.80;;;;;;;25.33;77.89;101348.84;5029867;27;97251;-65
2023/08/13 01:35:05;;;;;;;5.25;2.80;;;;;;;25.34;77.95;101347.81;5031664;27;96833;-68
2023/08/13 01:37:34;;;;;;;5.35;3.13;;;;;;;25.25;78.31;101359.47;5027098;27;97618;-65
2023/08/13 01:40:00;;;;;;;3.35;2.95;;;;;;;25.21;79.08;101358.00;5026101;27;99488;-64
2023/08/13 01:42:27;;;;;;;4.85;2.72;;;;;;;25.25;78.50;101362.16;5025446;27;96863;-64
2023/08/13 01:44:53;;;;;;;3.38;2.30;;;;;;;25.43;77.54;101355.13;5030635;27;97409;-64
2023/08/13 01:47:20;;;;;;;5.03;2.47;;;;;;;25.42;78.04;101361.53;5023542;27;97822;-64
2023/08/13 01:49:46;;;;;;;4.18;2.78;;;;;;;25.57;76.65;101356.63;5027015;27;99068;-64
2023/08/13 01:52:12;;;;;;;3.25;2.95;;;;;;;25.30;77.78;101365.31;5024353;27;98970;-64
2023/08/13 01:54:40;;;;;;;4.38;3.05;;;;;;;25.13;78.69;101360.53;5027595;27;96780;-65
2023/08/13 01:57:07;;;;;;;5.45;3.00;;;;;;;25.27;77.97;101371.84;5028258;27;98849;-62
2023/08/13 01:59:33;;;;;;;4.30;3.08;;;;;;;25.45;76.71;101369.41;5029707;27;98862;-64
2023/08/13 02:01:59;;;;;;;3.05;2.75;;;;;;;25.52;76.32;101373.28;5029556;27;97286;-63
2023/08/13 02:04:26;;;;;;;2.97;2.63;;;;;;;25.43;76.40;101374.06;5026483;27;97021;-63
2023/08/13 02:06:52;;;;;;;5.50;2.70;;;;;;;25.42;76.69;101369.66;5025656;27;99549;-63
2023/08/13 02:09:18;;;;;;;5.82;3.15;;;;;;;25.21;77.70;101379.63;5030016;27;101092;-63
2023/08/13 02:11:46;;;;;;;4.22;3.00;;;;;;;25.46;76.51;101375.66;5031241;27;96728;-63
2023/08/13 02:14:12;;;;;;;5.93;2.67;;;;;;;25.36;77.27;101371.06;5025654;27;96940;-63
2023/08/13 02:16:39;;;;;;;3.67;3.25;;;;;;;25.28;76.45;101373.56;5026985;27;99146;-64
2023/08/13 02:19:05;;;;;;;2.53;2.30;;;;;;;25.27;77.23;101371.00;5025492;27;99026;-63
2023/08/13 02:21:32;;;;;;;7.60;2.65;;;;;;;25.34;76.43;101374.88;5021056;27;96903;-64
2023/08/13 02:23:58;;;;;;;4.00;2.50;;;;;;;25.42;75.92;101369.66;5027646;27;96871;-65
2023/08/13 02:26:25;;;;;;;3.50;2.17;;;;;;;25.35;75.78;101379.28;5027321;27;98871;-65
2023/08/13 02:28:52;;;;;;;2.83;2.58;;;;;;;25.09;76.74;101381.56;5026774;27;97159;-65
2023/08/13 02:31:19;;;;;;;2.83;2.35;;;;;;;25.11;76.37;101385.00;5024826;27;96930;-65
2023/08/13 02:33:45;;;;;;;5.05;2.38;;;;;;;24.88;77.36;101386.06;5027872;27;100260;-65
2023/08/13 02:36:12;;;;;;;2.85;2.30;;;;;;;24.77;78.22;101395.09;5020020;27;101312;-65
2023/08/13 02:38:38;;;;;;;3.25;2.17;;;;;;;24.64;78.70;101394.41;5021702;27;98685;-65
2023/08/13 02:41:04;;;;;;;4.35;2.63;;;;;;;24.67;78.25;101394.19;5028045;27;98347;-65
2023/08/13 02:43:49;;;;;;;3.85;2.58;;;;;;;24.56;78.94;101399.59;5023039;27;96779;-65
2023/08/13 02:46:17;;;;;;;4.38;2.78;;;;;;;24.69;78.23;101394.88;5027930;27;98091;-65
2023/08/13 02:48:43;;;;;;;3.33;2.50;;;;;;;24.65;78.22;101390.75;5025027;27;98731;-65
2023/08/13 02:51:10;;;;;;;7.93;2.80;;;;;;;24.48;79.21;101400.25;5021376;27;98430;-65
2023/08/13 02:53:36;;;;;;;3.45;2.38;;;;;;;24.41;79.23;101406.31;5026982;27;97010;-65
2023/08/13 02:56:03;;;;;;;2.70;2.50;;;;;;;24.32;80.06;101409.75;5029725;27;99479;-65
2023/08/13 02:58:29;;;;;;;4.10;2.70;;;;;;;24.33;79.79;101414.19;5028623;27;99400;-65
2023/08/13 03:00:56;;;;;;;6.03;2.90;;;;;;;24.41;79.47;101406.31;5022104;27;96766;-65
2023/08/13 03:03:24;;;;;;;6.22;2.88;;;;;;;24.48;79.28;101408.34;5023541;27;96977;-65
2023/08/13 03:05:50;;;;;;;2.85;2.53;;;;;;;24.60;78.31;101403.78;5020770;27;99234;-65
2023/08/13 03:08:17;;;;;;;2.92;2.72;;;;;;;24.46;78.70;101409.47;5024310;27;99917;-65
2023/08/13 03:10:43;;;;;;;3.70;2.65;;;;;;;24.68;78.16;101412.06;5027410;27;99667;-64
2023/08/13 03:13:09;;;;;;;5.53;2.85;;;;;;;24.46;78.50;101410.34;5031852;27;96730;-65
2023/08/13 03:15:36;;;;;;;2.80;2.53;;;;;;;24.33;79.41;101403.38;5024687;27;99399;-65
2023/08/13 03:18:02;;;;;;;3.88;2.70;;;;;;;24.44;78.53;101409.59;5029592;27;98786;-65
2023/08/13 03:20:30;;;;;;;5.35;2.72;;;;;;;24.36;79.07;101408.50;5025615;27;99719;-64
2023/08/13 03:22:56;;;;;;;3.67;3.05;;;;;;;24.22;79.54;101413.22;5028842;27;97033;-65
2023/08/13 03:25:23;;;;;;;3.35;2.92;;;;;;;24.24;79.60;101415.78;5021226;27;98835;-65
2023/08/13 03:27:49;;;;;;;3.75;2.53;;;;;;;24.02;80.55;101415.81;5022809;27;98976;-65
2023/08/13 03:30:16;;;;;;;4.07;2.97;;;;;;;24.27;79.56;101422.78;5029511;27;96847;-64
2023/08/13 03:32:42;;;;;;;4.85;2.55;;;;;;;24.06;79.89;101418.13;5024539;27;98024;-65
2023/08/13 03:35:09;;;;;;;4.10;2.90;;;;;;;24.22;79.49;101418.59;5029383;27;101133;-65
2023/08/13 03:37:37;;;;;;;3.50;2.90;;;;;;;24.07;79.63;101425.25;5028051;27;99199;-65
2023/08/13 03:40:05;;;;;;;3.17;2.88;;;;;;;24.36;78.51;101430.13;5022865;27;98457;-64
2023/08/13 03:42:32;;;;;;;3.42;2.90;;;;;;;24.16;79.13;101429.03;5027621;27;97100;-65
2023/08/13 03:44:59;;;;;;;6.13;3.17;;;;;;;24.19;79.14;101440.47;5020549;27;99165;-65
2023/08/13 03:47:25;;;;;;;4.90;2.80;;;;;;;23.98;79.87;101435.91;5023413;27;99338;-64
2023/08/13 03:49:52;;;;;;;5.10;2.67;;;;;;;24.01;79.75;101436.53;5023056;27;96823;-65
2023/08/13 03:52:18;;;;;;;3.13;2.70;;;;;;;24.09;79.52;101436.75;5026934;27;97177;-64
2023/08/13 03:54:46;;;;;;;5.15;3.38;;;;;;;24.02;79.67;101432.88;5026485;27;98997;-65
2023/08/13 03:57:12;;;;;;;3.47;2.97;;;;;;;24.02;79.44;101432.00;5026966;27;99546;-64
2023/08/13 03:59:39;;;;;;;5.47;2.92;;;;;;;23.99;79.67;101441.19;5025936;27;97175;-64
2023/08/13 04:02:05;;;;;;;6.03;2.90;;;;;;;23.92;79.92;101436.41;5024348;27;96867;-65
2023/08/13 04:04:31;;;;;;;6.90;3.10;;;;;;;23.91;80.00;101443.66;5027344;27;98941;-65
2023/08/13 04:06:58;;;;;;;4.97;3.10;;;;;;;23.88;80.35;101448.44;5024625;27;98345;-65
2023/08/13 04:09:25;;;;;;;3.53;2.92;;;;;;;24.00;79.53;101451.03;5027083;27;96821;-65
2023/08/13 04:11:52;;;;;;;3.35;2.97;;;;;;;24.21;78.76;101454.72;5024925;27;97053;-65
2023/08/13 04:14:19;;;;;;;5.10;2.83;;;;;;;24.30;78.04;101454.94;5019831;27;98280;-65
2023/08/13 04:16:45;;;;;;;3.13;2.60;;;;;;;24.34;77.23;101451.00;5031268;27;99513;-64
2023/08/13 04:19:11;;;;;;;3.50;2.85;;;;;;;24.17;77.22;101455.03;5030245;27;97639;-65
2023/08/13 04:21:38;;;;;;;3.83;3.10;;;;;;;24.18;77.03;101454.94;5028520;27;97181;-65
2023/08/13 04:24:05;;;;;;;4.78;3.00;;;;;;;24.14;76.45;101453.47;5026247;27;98912;-65
2023/08/13 04:26:31;;;;;;;2.78;2.53;;;;;;;24.16;76.12;101453.31;5031166;27;98810;-65
2023/08/13 04:28:59;;;;;;;3.15;2.20;;;;;;;24.34;74.58;101459.13;5027052;27;96845;-66
2023/08/13 04:31:26;;;;;;;5.25;2.47;;;;;;;24.41;74.89;101455.78;5031334;27;102987;-67
2023/08/13 04:33:52;;;;;;;3.22;2.45;;;;;;;24.47;74.56;101468.78;5029559;27;99332;-67
2023/08/13 04:36:19;;;;;;;5.28;2.30;;;;;;;24.40;73.55;101462.16;5029966;27;99073;-65
2023/08/13 04:38:45;;;;;;;2.50;2.25;;;;;;;24.37;74.28;101458.84;5027325;27;96985;-65
2023/08/13 04:41:11;;;;;;;3.00;2.40;;;;;;;24.62;73.45;101454.00;5028310;27;97010;-65
2023/08/13 04:43:38;;;;;;;4.15;2.33;;;;;;;24.56;73.20;101453.63;5024626;27;99002;-66
2023/08/13 04:46:06;;;;;;;6.65;2.20;;;;;;;24.73;72.79;101461.22;5027107;27;99156;-66
2023/08/13 04:48:42;;;;;;;3.47;2.42;;;;;;;24.78;71.62;101464.38;5030651;27;97992;-65
2023/08/13 04:51:08;;;;;;;3.85;2.60;;;;;;;24.59;72.58;101456.09;5033896;27;96776;-65
2023/08/13 04:53:35;;;;;;;5.65;2.53;;;;;;;25.00;70.28;101458.94;5031427;27;102325;-66
2023/08/13 04:56:01;;;;;;;3.67;2.60;;;;;;;25.08;68.75;101460.97;5032738;27;99243;-65
2023/08/13 04:58:28;;;;;;;3.13;2.20;;;;;;;24.71;68.85;101456.91;5026973;27;97162;-65
2023/08/13 05:00:55;;;;;;;6.63;2.28;;;;;;;25.06;67.56;101462.97;5024587;27;98530;-64
2023/08/13 05:03:23;;;;;;;6.35;1.98;;;;;;;25.22;65.54;101460.66;5024453;27;99045;-65
2023/08/13 05:05:49;;;;;;;7.63;1.90;;;;;;;25.20;65.27;101469.91;5026446;27;98886;-65
2023/08/13 05:08:15;;;;;;;4.85;2.10;;;;;;;25.21;65.35;101471.59;5030800;27;97579;-64
2023/08/13 05:10:42;;;;;;;3.70;1.90;;;;;;;25.38;64.98;101468.31;5026423;27;96805;-64
2023/08/13 05:13:08;;;;;;;3.75;2.15;;;;;;;25.34;65.44;101472.25;5025410;27;101265;-65
2023/08/13 05:15:35;;;;;;;4.95;2.08;;;;;;;25.47;64.49;101472.91;5029066;27;99408;-65
2023/08/13 05:18:01;;;;;;;9.38;2.22;;;;;;;25.53;63.83;101476.97;5026999;27;97404;-64
2023/08/13 05:20:29;;;;;;;4.07;2.10;;;;;;;25.54;63.06;101467.81;5026516;27;98257;-64
2023/08/13 05:22:55;;;;;;;2.83;1.67;;;;;;;25.70;62.82;101463.69;5021076;27;98936;-65
2023/08/13 05:25:22;;;;;;;9.05;2.35;;;;;;;26.04;61.83;101468.84;5026256;27;98991;-65
2023/08/13 05:27:48;;;;;;;4.28;1.70;;;;;;;26.11;61.66;101465.44;5027318;27;98837;-65
2023/08/13 05:30:14;;;;;;;5.35;2.20;;;;;;;26.08;60.65;101472.97;5019541;27;96784;-64
2023/08/13 05:32:41;;;;;;;5.20;1.70;;;;;;;26.03;60.60;101473.38;5027066;27;99522;-65
2023/08/13 05:35:08;;;;;;;3.30;2.03;;;;;;;26.02;60.36;101479.78;5030404;27;102364;-65
2023/08/13 05:37:36;;;;;;;6.70;1.92;;;;;;;26.21;59.46;101487.13;5029785;27;97049;-65
2023/08/13 05:40:02;;;;;;;4.78;1.85;;;;;;;26.55;58.75;101483.13;5028390;27;97981;-65
2023/08/13 05:42:29;;;;;;;4.53;1.98;;;;;;;26.30;59.38;101486.34;5028186;27;99289;-64
2023/08/13 05:44:56;;;;;;;8.30;2.15;;;;;;;26.31;58.95;101489.91;5021998;27;99779;-65
2023/08/13 05:47:22;;;;;;;2.08;1.73;;;;;;;26.24;58.79;101483.31;5024727;27;97264;-65
2023/08/13 05:49:49;;;;;;;2.15;1.48;;;;;;;25.98;58.92;101481.06;5025823;27;97011;-64
2023/08/13 05:52:17;;;;;;;6.07;2.17;;;;;;;26.14;57.91;101486.81;5022232;27;99253;-64
2023/08/13 05:54:47;;;;;;;4.57;1.77;;;;;;;25.92;58.57;101486.19;5023605;27;98594;-64
2023/08/13 05:57:13;;;;;;;4.35;1.60;;;;;;;26.12;58.97;101477.97;5029797;27;96856;-64
2023/08/13 05:59:40;;;;;;;7.53;2.00;;;;;;;26.20;58.22;101482.69;5023662;27;96824;-64
2023/08/13 06:02:06;;;;;;;3.78;1.77;;;;;;;25.98;57.72;101491.03;5031533;27;99379;-64
2023/08/13 06:04:34;;;;;;;4.68;1.75;;;;;;;26.22;57.49;101491.56;5023436;27;98827;-65
2023/08/13 06:07:01;;;;;;;4.88;1.70;;;;;;;26.27;57.32;101493.88;5026333;27;97285;-65
2023/08/13 06:09:27;;;;;;;5.32;1.92;;;;;;;26.01;57.66;101494.31;5022686;27;97784;-64
2023/08/13 06:11:55;;;;;;;3.83;1.77;;;;;;;26.10;57.36;101489.94;5023351;27;98256;-65
2023/08/13 06:14:22;;;;;;;5.60;1.80;;;;;;;25.85;58.13;101487.69;5028191;27;99538;-67
2023/08/13 06:16:48;;;;;;;5.18;1.70;;;;;;;25.87;58.72;101500.09;5025281;27;96780;-65
2023/08/13 06:19:14;;;;;;;7.70;2.20;;;;;;;25.95;58.36;101500.28;5027079;27;97326;-65
2023/08/13 06:21:41;;;;;;;3.53;1.73;;;;;;;25.97;58.23;101503.72;5018855;27;99493;-65
2023/08/13 06:24:07;;;;;;;7.70;2.05;;;;;;;26.00;58.60;101502.56;5021573;27;98821;-65
2023/08/13 06:26:34;;;;;;;3.92;1.80;;;;;;;26.26;58.08;101506.56;5027087;27;97835;-65
2023/08/13 06:29:01;;;;;;;5.72;1.75;;;;;;;26.35;58.06;101508.47;5029190;27;96747;-65
2023/08/13 06:31:28;;;;;;;3.85;1.80;;;;;;;26.40;57.94;101506.19;5028847;27;98157;-64
2023/08/13 06:33:54;;;;;;;6.72;1.98;;;;;;;26.55;57.48;101509.38;5024992;27;101310;-65
2023/08/13 06:36:20;;;;;;;8.10;2.00;;;;;;;26.69;55.93;101508.13;5024557;27;96807;-65
2023/08/13 06:38:47;;;;;;;7.38;1.90;;;;;;;27.17;54.81;101510.91;5028478;27;99030;-65
2023/08/13 06:41:13;;;;;;;6.45;2.22;;;;;;;27.32;53.92;101504.88;5026107;27;98970;-65
2023/08/13 06:43:40;;;;;;;6.07;2.10;;;;;;;27.80;52.10;101506.69;5024504;27;98866;-65
2023/08/13 06:46:08;;;;;;;6.13;2.20;;;;;;;28.40;50.47;101501.75;5024948;27;96844;-65
2023/08/13 06:48:36;;;;;;;5.30;1.73;;;;;;;28.53;49.49;101496.81;5026299;27;97313;-65
2023/08/13 06:51:02;;;;;;;3.55;1.27;;;;;;;28.69;49.67;101505.13;5023413;27;98854;-64
2023/08/13 06:53:28;;;;;;;6.05;1.70;;;;;;;28.47;49.18;101503.72;5028316;27;98966;-65
2023/08/13 06:55:55;;;;;;;3.38;1.50;;;;;;;28.61;46.34;101502.34;5031086;27;96672;-65
2023/08/13 06:58:21;;;;;;;5.55;1.77;;;;;;;28.18;47.08;101503.00;5020949;27;97610;-65
2023/08/13 07:00:48;;;;;;;7.45;2.00;;;;;;;28.50;45.63;101505.25;5028945;27;98838;-65
2023/08/13 07:03:15;;;;;;;7.55;1.90;;;;;;;28.35;45.92;101504.06;5029163;27;99413;-65
2023/08/13 07:05:42;;;;;;;8.43;1.88;;;;;;;28.40;42.84;101491.75;5025051;27;98087;-65
2023/08/13 07:08:10;;;;;;;7.97;1.95;;;;;;;28.39;44.00;101497.31;5024329;27;97285;-65
2023/08/13 07:10:36;;;;;;;7.07;1.75;;;;;;;28.08;45.53;101497.59;5025270;27;99045;-65
2023/08/13 07:13:03;;;;;;;5.40;1.70;;;;;;;28.71;44.96;101508.56;5020987;27;99322;-65
2023/08/13 07:15:29;;;;;;;4.50;1.80;;;;;;;28.30;45.24;101509.09;5026560;27;100893;-65
2023/08/13 07:17:55;;;;;;;3.42;1.55;;;;;;;28.69;44.28;101513.28;5029307;27;97298;-65
2023/08/13 07:20:24;;;;;;;6.60;1.83;;;;;;;28.73;43.83;101509.28;5020792;27;98984;-66
2023/08/13 07:22:51;;;;;;;6.47;2.10;;;;;;;28.87;43.25;101516.94;5028249;27;99910;-65
2023/08/13 07:25:17;;;;;;;4.57;2.10;;;;;;;29.04;41.55;101506.19;5027170;27;96702;-64
2023/08/13 07:27:44;;;;;;;5.15;1.75;;;;;;;28.94;42.03;101511.75;5026811;27;97490;-65
2023/08/13 07:30:12;;;;;;;5.00;2.08;;;;;;;29.11;41.08;101518.19;5025488;27;99454;-65
2023/08/13 07:32:41;;;;;;;7.38;2.22;;;;;;;29.48;41.18;101513.41;5014076;27;99405;-64
2023/08/13 07:35:10;;;;;;;3.83;1.85;;;;;;;29.66;41.59;101511.53;5028662;27;97581;-64
2023/08/13 07:37:38;;;;;;;4.93;1.63;;;;;;;29.24;40.89;101518.63;5028857;27;98095;-64
2023/08/13 07:40:07;;;;;;;8.98;2.08;;;;;;;29.72;40.54;101515.47;5018619;27;101304;-64
2023/08/13 07:42:33;;;;;;;6.18;1.88;;;;;;;29.22;41.77;101515.22;5027073;27;98750;-64
2023/08/13 07:45:00;;;;;;;4.78;1.50;;;;;;;29.41;40.94;101517.78;5026172;27;96803;-64
2023/08/13 07:47:26;;;;;;;5.32;1.88;;;;;;;29.69;40.92;101519.38;5024398;27;96887;-64
2023/08/13 07:49:52;;;;;;;9.20;2.00;;;;;;;29.35;41.24;101515.69;5024466;27;99126;-64
2023/08/13 07:52:19;;;;;;;5.85;1.90;;;;;;;29.26;40.75;101519.34;5030942;27;98122;-64
2023/08/13 07:54:47;;;;;;;9.00;1.95;;;;;;;29.31;39.48;101517.00;5033487;27;96698;-64
2023/08/13 07:57:13;;;;;;;4.07;1.70;;;;;;;29.64;39.17;101512.69;5031746;27;96942;-64
2023/08/13 07:59:41;;;;;;;8.30;1.70;;;;;;;29.64;39.38;101516.28;5028581;27;99035;-65
2023/08/13 08:02:08;;;;;;;8.75;2.10;;;;;;;29.68;39.29;101520.38;5024601;27;101119;-65
2023/08/13 08:04:34;;;;;;;7.88;1.85;;;;;;;29.55;39.68;101528.09;5029265;27;98406;-65
2023/08/13 08:07:01;;;;;;;6.93;1.92;;;;;;;29.57;39.45;101522.50;5028503;27;96932;-64
2023/08/13 08:09:28;;;;;;;6.40;1.88;;;;;;;29.60;38.55;101519.47;5029358;27;102493;-64
2023/08/13 08:11:56;;;;;;;5.28;1.63;;;;;;;29.58;37.62;101518.78;5033393;27;99219;-64
2023/08/13 08:14:22;;;;;;;5.97;1.83;;;;;;;29.22;38.52;101526.94;5030842;27;97193;-65
2023/08/13 08:16:50;;;;;;;6.38;1.83;;;;;;;29.20;39.04;101523.56;5030265;27;96948;-64
2023/08/13 08:19:17;;;;;;;4.22;1.85;;;;;;;29.24;39.60;101529.53;5028958;27;101105;-64
2023/08/13 08:21:47;;;;;;;4.65;1.60;;;;;;;29.28;39.58;101522.75;5031825;27;98720;-65
2023/08/13 08:24:13;;;;;;;5.07;1.50;;;;;;;29.49;39.21;101517.00;5019555;27;96878;-64
2023/08/13 08:26:40;;;;;;;7.18;1.60;;;;;;;29.35;39.04;101529.31;5027740;27;97249;-65
2023/08/13 08:29:08;;;;;;;8.40;1.90;;;;;;;29.16;39.06;101518.56;5027066;27;98001;-65
2023/08/13 08:31:34;;;;;;;11.40;2.08;;;;;;;29.10;38.85;101521.91;5031158;27;98873;-65
2023/08/13 08:34:01;;;;;;;7.97;1.80;;;;;;;29.47;37.83;101525.31;5031141;27;97821;-65
2023/08/13 08:36:28;;;;;;;6.88;1.63;;;;;;;29.55;37.42;101521.81;5026136;27;96878;-64
2023/08/13 08:38:55;;;;;;;10.63;1.70;;;;;;;29.73;37.64;101517.19;5029440;27;101690;-64
2023/08/13 08:41:23;;;;;;;6.30;1.73;;;;;;;29.75;37.25;101515.13;5029059;27;101678;-64
2023/08/13 08:43:50;;;;;;;5.10;1.95;;;;;;;30.29;36.58;101511.22;5031326;27;96657;-64
2023/08/13 08:46:19;;;;;;;6.95;1.80;;;;;;;30.00;36.07;101522.47;5028583;27;96906;-65
2023/08/13 08:48:45;;;;;;;7.53;1.83;;;;;;;30.37;36.06;101513.13;5025597;27;98892;-65
2023/08/13 08:51:12;;;;;;;6.05;1.70;;;;;;;30.24;36.42;101510.00;5027217;27;97945;-66
2023/08/13 08:53:40;;;;;;;5.28;1.52;;;;;;;30.05;36.03;101502.94;5028459;27;97113;-65
2023/08/13 08:56:07;;;;;;;7.10;1.65;;;;;;;30.32;35.85;101505.44;5025369;27;96821;-64
2023/08/13 08:58:34;;;;;;;13.60;4.82;;;;;;;30.52;35.38;101506.06;5026686;27;99374;-65
2023/08/13 09:01:01;;;;;;;4.82;2.08;;;;;;;30.72;35.42;101501.19;5031297;27;98728;-65
2023/08/13 09:03:31;;;;;;;6.97;1.85;;;;;;;30.62;35.41;101495.00;5023173;27;97258;-65
2023/08/13 09:05:58;;;;;;;4.85;1.80;;;;;;;30.41;36.21;101506.31;5025766;27;96976;-64
2023/08/13 09:08:24;;;;;;;4.47;1.63;;;;;;;30.33;35.81;101495.38;5021862;27;97756;-64
2023/08/13 09:10:50;;;;;;;9.07;2.30;;;;;;;30.35;35.08;101499.66;5030881;27;99372;-64
2023/08/13 09:13:17;;;;;;;8.27;1.88;;;;;;;30.57;34.29;101491.91;5019759;27;99356;-64
2023/08/13 09:15:45;;;;;;;10.65;2.17;;;;;;;30.66;33.61;101493.63;5018651;27;96902;-65
2023/08/13 09:18:11;;;;;;;5.63;1.65;;;;;;;30.69;34.67;101487.84;5029516;27;98886;-64
2023/08/13 09:20:43;;;;;;;5.28;1.45;;;;;;;30.17;35.26;101496.19;5027300;27;98858;-64
2023/08/13 09:23:10;;;;;;;6.43;1.80;;;;;;;30.17;34.21;101496.19;5022443;27;97124;-65
2023/08/13 09:25:37;;;;;;;5.65;1.42;;;;;;;30.40;33.99;101491.81;5027478;27;97604;-65
2023/08/13 09:28:04;;;;;;;8.02;2.15;;;;;;;30.56;33.68;101485.63;5021379;27;97829;-64
2023/08/13 09:30:32;;;;;;;8.85;2.08;;;;;;;30.47;33.95;101492.88;5029476;27;98187;-64
2023/08/13 09:33:00;;;;;;;5.20;1.70;;;;;;;30.72;34.27;101487.53;5027342;27;97241;-65
2023/08/13 09:35:27;;;;;;;7.00;1.98;;;;;;;30.81;34.39;101483.78;5030946;27;97493;-64
2023/08/13 09:37:54;;;;;;;5.57;1.83;;;;;;;30.96;33.91;101484.84;5020433;27;98909;-65
2023/08/13 09:40:21;;;;;;;5.13;1.63;;;;;;;30.77;33.44;101482.44;5026995;27;99499;-65
2023/08/13 09:42:52;;;;;;;2.05;1.23;;;;;;;30.43;33.30;101477.88;5029545;27;96685;-65
2023/08/13 09:45:23;;;;;;;8.10;2.00;;;;;;;30.27;32.39;101479.69;5027349;27;96718;-63
2023/08/13 09:47:50;;;;;;;6.53;1.58;;;;;;;30.76;32.33;101470.66;5024933;27;99047;-65
2023/08/13 09:50:20;;;;;;;6.43;2.35;;;;;;;30.71;31.16;101477.66;5028440;27;101963;-65
2023/08/13 09:52:48;;;;;;;7.45;1.90;;;;;;;30.89;31.25;101481.06;5023148;27;97312;-65
2023/08/13 09:55:21;;;;;;;11.05;2.03;;;;;;;30.75;31.04;101473.53;5030446;27;96865;-65
2023/08/13 09:57:50;;;;;;;4.80;1.70;;;;;;;31.04;30.38;101473.94;5022401;27;98847;-65
2023/08/13 10:00:16;;;;;;;6.47;2.20;;;;;;;31.56;30.38;101476.31;5025218;27;99121;-65
2023/08/13 10:02:44;;;;;;;6.72;1.70;;;;;;;31.32;31.22;101476.31;5029722;27;96827;-65
2023/08/13 10:05:11;;;;;;;4.82;1.60;;;;;;;31.35;31.24;101473.25;5029544;27;97231;-65
2023/08/13 10:07:38;;;;;;;4.97;1.55;;;;;;;31.32;31.76;101477.19;5027527;27;98856;-65
2023/08/13 10:10:05;;;;;;;6.72;1.73;;;;;;;30.95;32.21;101471.34;5027817;27;101319;-66
2023/08/13 10:12:33;;;;;;;7.05;1.70;;;;;;;31.08;31.55;101469.88;5028919;27;97167;-63
2023/08/13 10:15:01;;;;;;;9.02;1.73;;;;;;;30.70;32.85;101467.75;5022790;27;98250;-65
2023/08/13 10:17:28;;;;;;;3.85;1.48;;;;;;;30.23;33.20;101472.84;5025426;27;98818;-65
2023/08/13 10:19:55;;;;;;;5.90;1.60;;;;;;;30.42;33.03;101472.59;5028237;27;99459;-65
2023/08/13 10:22:24;;;;;;;4.15;1.77;;;;;;;30.46;32.28;101474.81;5025976;27;97676;-65
2023/08/13 10:24:51;;;;;;;5.25;1.90;;;;;;;30.46;32.75;101473.94;5021730;27;97486;-66
2023/08/13 10:27:22;;;;;;;5.03;1.95;;;;;;;30.81;32.54;101476.44;5030178;27;97995;-65
2023/08/13 10:29:50;;;;;;;3.08;1.30;;;;;;;30.79;31.67;101470.31;5021422;27;98087;-65
2023/08/13 10:32:17;;;;;;;4.63;1.92;;;;;;;30.41;32.78;101465.41;5029029;27;97367;-64
2023/08/13 10:34:47;;;;;;;5.28;1.52;;;;;;;30.74;32.49;101466.38;5020232;27;100628;-65
2023/08/13 10:37:16;;;;;;;6.53;1.63;;;;;;;30.56;31.72;101473.84;5025102;27;99731;-66
2023/08/13 10:39:45;;;;;;;3.83;1.70;;;;;;;30.55;31.95;101473.00;5021878;27;98765;-65
2023/08/13 10:42:45;;;;;;;3.97;1.35;;;;;;;30.22;32.31;101479.31;5029579;27;97913;-65
2023/08/13 10:45:15;;;;;;;5.28;1.90;;;;;;;30.14;32.76;101482.84;5023258;27;96929;-65
2023/08/13 10:47:46;;;;;;;5.53;2.08;;;;;;;30.20;33.41;101479.47;5029373;27;99224;-65
2023/08/13 10:50:23;;;;;;;4.15;2.35;;;;;;;29.93;32.41;101477.00;5025653;27;100541;-65
2023/08/13 10:52:53;;;;;;;4.38;1.55;;;;;;;30.16;31.95;101483.56;5029005;27;97089;-65
2023/08/13 10:55:23;;;;;;;5.63;1.85;;;;;;;30.41;32.42;101484.50;5029265;27;97831;-65
2023/08/13 10:57:51;;;;;;;4.47;1.77;;;;;;;30.55;32.11;101480.31;5019261;27;100628;-65
2023/08/13 11:00:20;;;;;;;5.72;1.48;;;;;;;30.72;32.25;101485.63;5027290;27;97701;-64
2023/08/13 11:02:51;;;;;;;6.05;1.83;;;;;;;30.97;32.39;101485.69;5025978;27;97506;-65
2023/08/13 11:05:17;;;;;;;4.82;1.55;;;;;;;31.24;32.40;101486.22;5025714;27;97340;-65
2023/08/13 11:07:44;;;;;;;5.07;1.70;;;;;;;31.44;31.80;101478.53;5023840;27;98209;-65
2023/08/13 11:10:16;;;;;;;5.97;1.65;;;;;;;31.19;31.91;101482.31;5022668;27;100363;-64
2023/08/13 11:12:44;;;;;;;7.88;1.85;;;;;;;30.84;32.33;101486.19;5026888;27;97570;-65
2023/08/13 11:15:10;;;;;;;6.47;2.08;;;;;;;30.98;32.17;101480.06;5027576;27;97378;-64
2023/08/13 11:17:40;;;;;;;3.78;1.75;;;;;;;31.37;31.07;101483.00;5032391;27;102372;-65
2023/08/13 11:20:09;;;;;;;5.47;1.63;;;;;;;31.59;31.39;101484.16;5027274;27;102060;-65
2023/08/13 11:22:36;;;;;;;5.25;1.73;;;;;;;31.38;31.74;101481.09;5021291;27;96734;-65
2023/08/13 11:25:03;;;;;;;5.30;1.67;;;;;;;31.95;31.10;101473.69;5025662;27;97485;-65